createdAt,value
2022-08-26T00:01:52.057Z,21.70
2022-08-26T00:04:19.517Z,21.60
2022-08-26T00:06:47.262Z,21.60
2022-08-26T00:09:16.221Z,21.60
2022-08-26T00:11:44.690Z,21.60
2022-08-26T00:14:14.183Z,21.60
2022-08-26T00:16:47.929Z,21.60
2022-08-26T00:19:18.413Z,21.60
2022-08-26T00:21:48.840Z,21.60
2022-08-26T00:24:18.148Z,21.60
2022-08-26T00:26:45.459Z,21.60
2022-08-26T00:29:13.122Z,21.60
2022-08-26T00:31:40.778Z,21.60
2022-08-26T00:34:09.407Z,21.50
2022-08-26T00:36:36.760Z,21.50
2022-08-26T00:39:04.778Z,21.50
2022-08-26T00:41:34.314Z,21.40
2022-08-26T00:44:01.251Z,21.40
2022-08-26T00:46:36.066Z,21.40
2022-08-26T00:49:22.179Z,21.30
2022-08-26T00:51:58.016Z,21.30
2022-08-26T00:54:32.740Z,21.20
2022-08-26T00:57:08.556Z,21.20
2022-08-26T00:59:48.262Z,21.10
2022-08-26T01:02:20.229Z,21.10
2022-08-26T01:04:54.410Z,21.10
2022-08-26T01:07:25.664Z,21.10
2022-08-26T01:09:52.656Z,21.00
2022-08-26T01:12:22.231Z,20.90
2022-08-26T01:14:49.841Z,20.80
2022-08-26T01:17:17.080Z,20.80
2022-08-26T01:19:52.252Z,20.80
2022-08-26T01:22:52.371Z,20.80
2022-08-26T01:25:21.340Z,20.70
2022-08-26T01:27:49.217Z,20.70
2022-08-26T01:30:17.897Z,20.70
2022-08-26T01:32:46.082Z,20.60
2022-08-26T01:35:13.005Z,20.60
2022-08-26T01:37:41.103Z,20.70
2022-08-26T01:40:14.038Z,20.60
2022-08-26T01:42:44.431Z,20.60
2022-08-26T01:45:18.545Z,20.60
2022-08-26T01:47:49.093Z,20.60
2022-08-26T01:50:27.681Z,20.60
2022-08-26T01:52:57.679Z,20.50
2022-08-26T01:55:32.191Z,20.50
2022-08-26T01:58:00.790Z,20.50
2022-08-26T02:00:28.378Z,20.50
2022-08-26T02:03:16.217Z,20.50
2022-08-26T02:05:48.835Z,20.40
2022-08-26T02:08:24.609Z,20.40
2022-08-26T02:10:55.052Z,20.50
2022-08-26T02:13:23.250Z,20.40
2022-08-26T02:15:52.449Z,20.30
2022-08-26T02:18:20.082Z,20.30
2022-08-26T02:20:47.056Z,20.10
2022-08-26T02:23:18.643Z,20.10
2022-08-26T02:25:55.865Z,20.00
2022-08-26T02:28:22.988Z,19.90
2022-08-26T02:30:55.700Z,19.80
2022-08-26T02:33:22.898Z,19.70
2022-08-26T02:35:49.824Z,19.70
2022-08-26T02:38:17.775Z,19.60
2022-08-26T02:40:44.919Z,19.60
2022-08-26T02:43:12.674Z,19.50
2022-08-26T02:45:40.344Z,19.40
2022-08-26T02:48:13.701Z,19.30
2022-08-26T02:50:41.134Z,19.30
2022-08-26T02:53:09.897Z,19.30
2022-08-26T02:55:37.237Z,19.30
2022-08-26T02:58:05.230Z,19.30
2022-08-26T03:00:32.717Z,19.30
2022-08-26T03:02:59.995Z,19.20
2022-08-26T03:05:27.018Z,19.20
2022-08-26T03:07:54.014Z,19.10
2022-08-26T03:10:21.499Z,19.00
2022-08-26T03:12:48.649Z,19.00
2022-08-26T03:15:17.846Z,18.90
2022-08-26T03:17:47.146Z,18.80
2022-08-26T03:20:15.458Z,18.70
2022-08-26T03:22:43.130Z,18.80
2022-08-26T03:25:12.904Z,18.80
2022-08-26T03:27:41.693Z,18.80
2022-08-26T03:30:30.091Z,18.80
2022-08-26T03:32:57.330Z,18.70
2022-08-26T03:35:25.599Z,18.70
2022-08-26T03:37:53.822Z,18.70
2022-08-26T03:40:22.371Z,18.60
2022-08-26T03:42:51.187Z,18.60
2022-08-26T03:45:19.326Z,18.60
2022-08-26T03:47:47.564Z,18.60
2022-08-26T03:50:17.676Z,18.60
2022-08-26T03:52:56.035Z,18.50
2022-08-26T03:55:28.778Z,18.50
2022-08-26T03:57:55.872Z,18.50
2022-08-26T04:00:22.861Z,18.50
2022-08-26T04:02:53.374Z,18.50
2022-08-26T04:05:21.776Z,18.50
2022-08-26T04:07:49.836Z,18.50
2022-08-26T04:10:19.454Z,18.50
2022-08-26T04:12:47.787Z,18.40
2022-08-26T04:15:16.496Z,18.30
2022-08-26T04:17:45.209Z,18.20
2022-08-26T04:20:16.197Z,18.20
2022-08-26T04:22:43.534Z,18.10
2022-08-26T04:25:11.028Z,18.10
2022-08-26T04:27:38.336Z,18.10
2022-08-26T04:30:08.007Z,18.10
2022-08-26T04:32:35.849Z,18.00
2022-08-26T04:35:04.563Z,18.10
2022-08-26T04:37:31.666Z,18.00
2022-08-26T04:39:59.781Z,18.00
2022-08-26T04:42:27.148Z,17.90
2022-08-26T04:44:54.103Z,17.90
2022-08-26T04:47:22.553Z,18.00
2022-08-26T04:49:49.502Z,18.00
2022-08-26T04:52:17.423Z,18.00
2022-08-26T04:54:44.340Z,18.20
2022-08-26T04:57:11.296Z,18.30
2022-08-26T04:59:39.494Z,18.40
2022-08-26T05:02:06.972Z,18.40
2022-08-26T05:04:34.621Z,18.40
2022-08-26T05:07:03.061Z,18.40
2022-08-26T05:09:30.488Z,18.40
2022-08-26T05:11:57.574Z,18.50
2022-08-26T05:14:24.511Z,18.60
2022-08-26T05:16:51.682Z,18.70
2022-08-26T05:19:19.501Z,18.80
2022-08-26T05:21:48.428Z,19.00
2022-08-26T05:24:16.180Z,19.20
2022-08-26T05:26:44.942Z,19.40
2022-08-26T05:29:12.783Z,19.60
2022-08-26T05:31:40.120Z,20.00
2022-08-26T05:34:08.457Z,20.20
2022-08-26T05:36:36.117Z,20.50
2022-08-26T05:39:06.086Z,20.70
2022-08-26T05:41:38.611Z,20.90
2022-08-26T05:44:09.611Z,21.10
2022-08-26T05:46:37.308Z,21.20
2022-08-26T05:49:05.890Z,21.30
2022-08-26T05:51:33.699Z,21.40
2022-08-26T05:54:03.600Z,21.50
2022-08-26T05:56:30.802Z,21.50
2022-08-26T05:58:59.673Z,21.60
2022-08-26T06:01:29.662Z,21.80
2022-08-26T06:03:59.660Z,22.00
2022-08-26T06:06:31.711Z,22.10
2022-08-26T06:09:00.838Z,22.30
2022-08-26T06:11:30.666Z,22.40
2022-08-26T06:14:03.651Z,22.30
2022-08-26T06:16:34.732Z,22.40
2022-08-26T06:19:11.129Z,22.20
2022-08-26T06:21:40.167Z,22.10
2022-08-26T06:24:36.352Z,21.90
2022-08-26T06:27:06.156Z,21.80
2022-08-26T06:29:36.041Z,21.50
2022-08-26T06:32:04.770Z,21.30
2022-08-26T06:34:31.705Z,21.10
2022-08-26T06:37:01.942Z,21.00
2022-08-26T06:39:31.142Z,20.90
2022-08-26T06:42:00.043Z,20.80
2022-08-26T06:44:27.774Z,20.60
2022-08-26T06:46:55.265Z,20.60
2022-08-26T06:49:26.771Z,20.50
2022-08-26T06:51:55.452Z,20.40
2022-08-26T06:54:22.468Z,20.40
2022-08-26T06:56:49.802Z,20.30
2022-08-26T06:59:16.707Z,20.20
2022-08-26T07:01:45.355Z,20.30
2022-08-26T07:04:15.669Z,20.30
2022-08-26T07:06:48.913Z,20.40
2022-08-26T07:09:16.938Z,20.50
2022-08-26T07:11:44.686Z,20.60
2022-08-26T07:14:12.864Z,20.60
2022-08-26T07:16:41.257Z,20.60
2022-08-26T07:19:10.796Z,20.60
2022-08-26T07:21:40.370Z,20.70
2022-08-26T07:24:08.699Z,20.70
2022-08-26T07:26:38.688Z,20.70
2022-08-26T07:29:06.918Z,20.60
2022-08-26T07:31:42.222Z,20.70
2022-08-26T07:34:13.691Z,20.70
2022-08-26T07:36:43.787Z,20.70
2022-08-26T07:39:10.818Z,20.80
2022-08-26T07:41:37.730Z,20.70
2022-08-26T07:44:05.316Z,20.80
2022-08-26T07:46:32.643Z,20.80
2022-08-26T07:48:59.601Z,20.80
2022-08-26T07:51:28.032Z,20.90
2022-08-26T07:53:55.595Z,21.00
2022-08-26T07:56:23.560Z,21.10
2022-08-26T07:58:54.093Z,21.20
2022-08-26T08:01:23.995Z,21.20
2022-08-26T08:03:52.400Z,21.30
2022-08-26T08:06:27.338Z,21.30
2022-08-26T08:08:55.901Z,21.40
2022-08-26T08:11:23.709Z,21.60
2022-08-26T08:13:56.127Z,21.80
2022-08-26T08:16:25.186Z,21.90
2022-08-26T08:18:53.575Z,22.00
2022-08-26T08:21:21.465Z,22.10
2022-08-26T08:23:51.859Z,22.20
2022-08-26T08:26:20.010Z,22.30
2022-08-26T08:28:47.788Z,22.30
2022-08-26T08:31:56.777Z,22.20
2022-08-26T08:34:19.255Z,22.40
2022-08-26T08:36:48.796Z,22.60
2022-08-26T08:39:17.330Z,22.70
2022-08-26T08:42:25.400Z,22.80
2022-08-26T08:44:55.596Z,22.80
2022-08-26T08:47:37.755Z,23.00
2022-08-26T08:50:42.944Z,23.20
2022-08-26T08:53:28.807Z,23.20
2022-08-26T08:56:31.050Z,23.20
2022-08-26T08:59:09.000Z,23.20
2022-08-26T09:02:04.821Z,23.20
2022-08-26T09:08:28.452Z,23.20
2022-08-26T09:11:00.974Z,23.30
2022-08-26T09:13:31.924Z,23.40
2022-08-26T09:16:20.487Z,23.30
2022-08-26T09:19:26.584Z,23.40
2022-08-26T09:22:02.272Z,23.40
2022-08-26T09:24:41.626Z,23.60
2022-08-26T09:27:09.021Z,23.70
2022-08-26T09:29:45.652Z,23.90
2022-08-26T09:32:24.150Z,23.90
2022-08-26T09:35:07.618Z,23.70
2022-08-26T09:40:29.386Z,23.80
2022-08-26T09:43:10.060Z,23.90
2022-08-26T09:45:38.793Z,23.90
2022-08-26T09:48:07.932Z,23.90
2022-08-26T09:50:52.314Z,24.00
2022-08-26T09:53:25.193Z,24.00
2022-08-26T09:56:16.619Z,24.10
2022-08-26T09:58:47.291Z,24.20
2022-08-26T10:01:38.009Z,24.50
2022-08-26T10:04:26.697Z,24.60
2022-08-26T10:07:05.978Z,24.50
2022-08-26T10:09:39.060Z,24.50
2022-08-26T10:12:14.816Z,24.60
2022-08-26T10:14:48.607Z,24.80
2022-08-26T10:17:29.148Z,24.90
2022-08-26T10:20:09.841Z,25.00
2022-08-26T10:23:01.099Z,25.10
2022-08-26T10:25:43.917Z,25.10
2022-08-26T10:28:40.319Z,25.30
2022-08-26T10:31:48.546Z,25.60
2022-08-26T10:34:19.216Z,25.70
2022-08-26T10:37:16.213Z,25.60
2022-08-26T10:40:28.353Z,25.30
2022-08-26T10:43:26.632Z,25.20
2022-08-26T10:46:03.758Z,25.30
2022-08-26T10:49:03.304Z,25.30
2022-08-26T10:51:42.087Z,25.30
2022-08-26T10:54:23.751Z,25.10
2022-08-26T10:56:59.965Z,25.10
2022-08-26T11:00:34.882Z,25.20
2022-08-26T11:03:43.969Z,25.20
2022-08-26T11:06:24.203Z,25.10
2022-08-26T11:08:59.578Z,25.50
2022-08-26T11:11:47.231Z,25.70
2022-08-26T11:14:58.500Z,25.60
2022-08-26T11:18:09.279Z,25.30
2022-08-26T11:20:47.183Z,25.30
2022-08-26T11:23:43.477Z,25.30
2022-08-26T11:26:36.055Z,25.30
2022-08-26T11:29:13.093Z,25.30
2022-08-26T11:31:53.701Z,25.20
2022-08-26T11:34:51.931Z,25.30
2022-08-26T11:39:54.963Z,25.40
2022-08-26T11:42:44.112Z,25.30
2022-08-26T11:45:28.438Z,25.20
2022-08-26T11:47:56.462Z,25.10
2022-08-26T11:50:28.543Z,25.00
2022-08-26T11:53:07.717Z,25.20
2022-08-26T11:55:41.838Z,25.20
2022-08-26T11:58:12.961Z,25.00
2022-08-26T12:01:01.909Z,25.10
2022-08-26T12:03:45.715Z,25.30
2022-08-26T12:06:20.776Z,25.60
2022-08-26T12:08:48.351Z,26.00
2022-08-26T12:11:27.976Z,25.90
2022-08-26T12:13:57.729Z,25.80
2022-08-26T12:16:30.386Z,25.70
2022-08-26T12:18:57.663Z,25.60
2022-08-26T12:21:34.558Z,25.60
2022-08-26T12:24:04.055Z,25.70
2022-08-26T12:26:34.737Z,25.90
2022-08-26T12:29:26.437Z,26.10
2022-08-26T12:32:13.603Z,26.10
2022-08-26T12:34:45.312Z,26.40
2022-08-26T12:37:14.226Z,26.70
2022-08-26T12:39:44.673Z,27.40
2022-08-26T12:42:42.155Z,27.20
2022-08-26T12:45:09.817Z,26.80
2022-08-26T12:47:44.099Z,26.60
2022-08-26T12:50:31.474Z,26.30
2022-08-26T12:53:21.378Z,26.20
2022-08-26T12:56:07.692Z,26.00
2022-08-26T12:58:39.082Z,26.00
2022-08-26T13:01:26.188Z,26.10
2022-08-26T13:03:53.284Z,25.90
2022-08-26T13:06:32.622Z,25.80
2022-08-26T13:09:24.771Z,25.80
2022-08-26T13:12:02.186Z,25.70
2022-08-26T13:14:29.307Z,25.70
2022-08-26T13:16:56.242Z,25.80
2022-08-26T13:19:25.773Z,25.90
2022-08-26T13:21:58.784Z,26.00
2022-08-26T13:24:38.322Z,26.20
2022-08-26T13:27:06.793Z,26.40
2022-08-26T13:29:33.751Z,26.20
2022-08-26T13:32:01.541Z,26.30
2022-08-26T13:34:29.920Z,26.30
2022-08-26T13:36:57.810Z,26.30
2022-08-26T13:39:25.431Z,26.20
2022-08-26T13:41:53.366Z,26.00
2022-08-26T13:44:20.524Z,25.90
2022-08-26T13:46:47.793Z,26.10
2022-08-26T13:49:14.781Z,26.40
2022-08-26T13:51:42.060Z,26.40
2022-08-26T13:54:08.954Z,26.30
2022-08-26T13:56:37.569Z,26.30
2022-08-26T13:59:05.785Z,26.20
2022-08-26T14:01:35.100Z,26.40
2022-08-26T14:04:03.216Z,26.50
2022-08-26T14:06:30.750Z,26.50
2022-08-26T14:08:58.673Z,26.50
2022-08-26T14:11:25.702Z,26.60
2022-08-26T14:13:52.813Z,26.40
2022-08-26T14:16:58.840Z,26.30
2022-08-26T14:19:26.179Z,26.30
2022-08-26T14:21:53.246Z,26.30
2022-08-26T14:24:20.199Z,26.40
2022-08-26T14:26:48.529Z,26.40
2022-08-26T14:29:16.870Z,26.50
2022-08-26T14:31:44.285Z,26.50
2022-08-26T14:34:14.320Z,26.50
2022-08-26T14:36:41.293Z,26.30
2022-08-26T14:39:10.687Z,26.00
2022-08-26T14:41:53.975Z,25.90
2022-08-26T14:44:27.806Z,25.90
2022-08-26T14:46:55.783Z,25.90
2022-08-26T14:49:24.350Z,25.90
2022-08-26T14:51:51.281Z,25.80
2022-08-26T14:54:19.801Z,25.90
2022-08-26T14:56:54.069Z,25.90
2022-08-26T14:59:26.794Z,25.80
2022-08-26T15:01:54.897Z,25.70
2022-08-26T15:04:23.060Z,25.70
2022-08-26T15:06:50.799Z,25.60
2022-08-26T15:09:17.867Z,25.40
2022-08-26T15:11:47.630Z,25.40
2022-08-26T15:14:19.321Z,25.30
2022-08-26T15:16:48.624Z,25.20
2022-08-26T15:19:16.463Z,25.20
2022-08-26T15:21:45.399Z,25.30
2022-08-26T15:24:13.182Z,25.40
2022-08-26T15:26:40.415Z,25.30
2022-08-26T15:29:07.429Z,25.30
2022-08-26T15:31:35.045Z,25.10
2022-08-26T15:34:06.053Z,25.10
2022-08-26T15:36:34.650Z,24.90
2022-08-26T15:39:01.892Z,24.90
2022-08-26T15:41:29.719Z,25.00
2022-08-26T15:43:57.407Z,25.20
2022-08-26T15:46:24.597Z,25.20
2022-08-26T15:48:52.380Z,25.20
2022-08-26T15:51:28.358Z,25.00
2022-08-26T15:53:59.041Z,25.00
2022-08-26T15:56:28.210Z,25.10
2022-08-26T15:58:56.434Z,25.20
2022-08-26T16:01:27.520Z,25.20
2022-08-26T16:03:55.607Z,25.10
2022-08-26T16:06:28.706Z,25.10
2022-08-26T16:08:56.394Z,25.10
2022-08-26T16:11:24.412Z,25.00
2022-08-26T16:13:51.472Z,24.80
2022-08-26T16:16:19.171Z,24.70
2022-08-26T16:18:46.121Z,24.60
2022-08-26T16:21:19.416Z,24.50
2022-08-26T16:23:46.775Z,24.40
2022-08-26T16:26:17.552Z,24.30
2022-08-26T16:28:45.064Z,24.20
2022-08-26T16:31:12.482Z,24.10
2022-08-26T16:33:40.699Z,24.00
2022-08-26T16:36:08.615Z,24.00
2022-08-26T16:38:36.489Z,24.00
2022-08-26T16:41:04.439Z,23.80
2022-08-26T16:43:32.632Z,23.70
2022-08-26T16:45:59.632Z,23.60
2022-08-26T16:48:27.529Z,23.50
2022-08-26T16:50:55.696Z,23.40
2022-08-26T16:53:23.199Z,23.40
2022-08-26T16:55:50.733Z,23.30
2022-08-26T16:58:18.055Z,23.20
2022-08-26T17:00:45.380Z,23.10
2022-08-26T17:03:13.065Z,23.00
2022-08-26T17:05:40.577Z,23.00
2022-08-26T17:08:07.942Z,22.90
2022-08-26T17:10:35.328Z,22.80
2022-08-26T17:13:02.655Z,22.80
2022-08-26T17:15:29.765Z,22.80
2022-08-26T17:17:57.398Z,22.60
2022-08-26T17:20:27.522Z,22.60
2022-08-26T17:22:56.075Z,22.60
2022-08-26T17:25:26.684Z,22.50
2022-08-26T17:27:54.144Z,22.50
2022-08-26T17:30:21.911Z,22.40
2022-08-26T17:32:49.686Z,22.30
2022-08-26T17:35:17.190Z,22.30
2022-08-26T17:37:44.507Z,22.30
2022-08-26T17:40:15.573Z,22.20
2022-08-26T17:42:42.749Z,22.20
2022-08-26T17:45:11.136Z,22.20
2022-08-26T17:47:39.132Z,22.10
2022-08-26T17:50:09.376Z,22.10
2022-08-26T17:52:37.542Z,22.10
2022-08-26T17:55:10.389Z,22.10
2022-08-26T17:57:40.892Z,22.10
2022-08-26T18:00:14.483Z,22.00
2022-08-26T18:02:42.642Z,22.00
2022-08-26T18:05:11.811Z,22.00
2022-08-26T18:07:43.785Z,22.10
2022-08-26T18:10:13.839Z,22.10
2022-08-26T18:12:41.698Z,22.10
2022-08-26T18:15:10.538Z,22.10
2022-08-26T18:17:39.379Z,22.00
2022-08-26T18:20:09.597Z,22.00
2022-08-26T18:22:36.609Z,21.90
2022-08-26T18:25:05.428Z,21.90
2022-08-26T18:27:32.602Z,21.80
2022-08-26T18:30:00.089Z,21.80
2022-08-26T18:32:27.247Z,21.70
2022-08-26T18:34:57.332Z,21.60
2022-08-26T18:37:25.770Z,21.60
2022-08-26T18:39:55.017Z,21.60
2022-08-26T18:42:23.653Z,21.50
2022-08-26T18:44:51.186Z,21.50
2022-08-26T18:47:18.332Z,21.50
2022-08-26T18:49:46.513Z,21.50
2022-08-26T18:52:15.927Z,21.50
2022-08-26T18:54:46.128Z,21.50
2022-08-26T18:57:13.117Z,21.50
2022-08-26T18:59:41.036Z,21.40
2022-08-26T19:02:09.647Z,21.40
2022-08-26T19:04:38.577Z,21.40
2022-08-26T19:07:06.598Z,21.30
2022-08-26T19:09:33.756Z,21.30
2022-08-26T19:12:01.741Z,21.30
2022-08-26T19:14:29.403Z,21.30
2022-08-26T19:16:56.466Z,21.20
2022-08-26T19:19:26.439Z,21.20
2022-08-26T19:21:53.625Z,21.20
2022-08-26T19:24:21.378Z,21.20
2022-08-26T19:26:51.462Z,21.20
2022-08-26T19:29:29.418Z,21.20
2022-08-26T19:31:56.676Z,21.20
2022-08-26T19:34:24.187Z,21.10
2022-08-26T19:36:53.242Z,21.10
2022-08-26T19:39:21.211Z,21.00
2022-08-26T19:41:48.517Z,20.90
2022-08-26T19:44:39.183Z,20.90
2022-08-26T19:47:08.826Z,20.80
2022-08-26T19:49:35.914Z,20.70
2022-08-26T19:52:03.226Z,20.70
2022-08-26T19:54:30.608Z,20.70
2022-08-26T19:56:57.638Z,20.70
2022-08-26T19:59:24.764Z,20.60
2022-08-26T20:02:00.665Z,20.60
2022-08-26T20:04:32.362Z,20.60
2022-08-26T20:07:01.835Z,20.60
2022-08-26T20:09:29.780Z,20.60
2022-08-26T20:11:57.084Z,20.50
2022-08-26T20:14:25.129Z,20.50
2022-08-26T20:16:52.363Z,20.50
2022-08-26T20:19:37.962Z,20.50
2022-08-26T20:22:05.902Z,20.40
2022-08-26T20:24:34.226Z,20.40
2022-08-26T20:27:06.784Z,20.40
2022-08-26T20:29:35.516Z,20.30
2022-08-26T20:32:02.928Z,20.30
2022-08-26T20:34:30.193Z,20.30
2022-08-26T20:36:57.270Z,20.30
2022-08-26T20:39:24.251Z,20.20
2022-08-26T20:41:51.301Z,20.30
2022-08-26T20:44:18.347Z,20.20
2022-08-26T20:46:45.703Z,20.20
2022-08-26T20:49:13.401Z,20.20
2022-08-26T20:51:43.153Z,20.10
2022-08-26T20:54:12.048Z,20.10
2022-08-26T20:56:40.034Z,20.10
2022-08-26T20:59:08.083Z,20.10
2022-08-26T21:01:37.848Z,20.10
2022-08-26T21:04:13.900Z,20.10
2022-08-26T21:06:42.325Z,20.00
2022-08-26T21:09:19.509Z,20.00
2022-08-26T21:11:46.718Z,20.00
2022-08-26T21:14:16.130Z,20.00
2022-08-26T21:16:45.714Z,20.00
2022-08-26T21:19:15.290Z,20.00
2022-08-26T21:21:42.276Z,19.90
2022-08-26T21:24:09.685Z,19.90
2022-08-26T21:26:37.140Z,19.90
2022-08-26T21:29:06.749Z,19.80
2022-08-26T21:31:35.155Z,19.80
2022-08-26T21:34:02.067Z,19.80
2022-08-26T21:36:29.287Z,19.80
2022-08-26T21:39:00.491Z,19.80
2022-08-26T21:41:28.563Z,19.80
2022-08-26T21:43:59.316Z,19.80
2022-08-26T21:46:29.100Z,19.70
2022-08-26T21:49:02.039Z,19.70
2022-08-26T21:51:32.577Z,19.70
2022-08-26T21:54:00.911Z,19.70
2022-08-26T21:56:31.621Z,19.70
2022-08-26T21:59:00.276Z,19.70
2022-08-26T22:01:31.924Z,19.60
2022-08-26T22:03:59.323Z,19.60
2022-08-26T22:06:27.872Z,19.60
2022-08-26T22:08:55.895Z,19.60
2022-08-26T22:11:25.387Z,19.60
2022-08-26T22:13:52.480Z,19.60
2022-08-26T22:16:19.897Z,19.60
2022-08-26T22:18:46.952Z,19.60
2022-08-26T22:21:16.947Z,19.60
2022-08-26T22:23:44.511Z,19.60
2022-08-26T22:26:13.598Z,19.50
2022-08-26T22:28:40.586Z,19.50
2022-08-26T22:31:11.355Z,19.40
2022-08-26T22:33:40.508Z,19.40
2022-08-26T22:36:07.758Z,19.30
2022-08-26T22:38:34.732Z,19.30
2022-08-26T22:41:05.401Z,19.20
2022-08-26T22:43:34.826Z,19.20
2022-08-26T22:46:01.832Z,19.20
2022-08-26T22:48:28.809Z,19.20
2022-08-26T22:51:00.164Z,19.10
2022-08-26T22:53:27.808Z,19.10
2022-08-26T22:55:55.059Z,19.00
2022-08-26T22:58:30.410Z,19.00
2022-08-26T23:00:59.400Z,19.00
2022-08-26T23:03:27.092Z,18.90
2022-08-26T23:05:55.534Z,18.80
2022-08-26T23:08:23.170Z,18.80
2022-08-26T23:10:50.833Z,18.80
2022-08-26T23:13:18.370Z,18.70
2022-08-26T23:15:45.820Z,18.70
2022-08-26T23:18:14.928Z,18.70
2022-08-26T23:20:42.660Z,18.70
2022-08-26T23:23:09.673Z,18.70
2022-08-26T23:25:36.661Z,18.70
2022-08-26T23:28:04.020Z,18.60
2022-08-26T23:30:32.947Z,18.60
2022-08-26T23:33:00.003Z,18.60
2022-08-26T23:35:27.104Z,18.60
2022-08-26T23:37:54.488Z,18.50
2022-08-26T23:40:28.784Z,18.50
2022-08-26T23:42:57.531Z,18.40
2022-08-26T23:45:25.425Z,18.40
2022-08-26T23:47:52.517Z,18.40
2022-08-26T23:50:22.224Z,18.50
2022-08-26T23:53:08.748Z,18.40
2022-08-26T23:55:39.718Z,18.40
2022-08-26T23:58:06.922Z,18.40
